createdAt,value
2019-04-29T00:00:07.699Z,4.50
2019-04-29T00:05:10.186Z,4.77
2019-04-29T00:10:15.471Z,5.47
2019-04-29T00:15:33.573Z,4.50
2019-04-29T00:20:46.438Z,5.23
2019-04-29T00:25:48.738Z,4.90
2019-04-29T00:30:50.805Z,5.67
2019-04-29T00:35:52.991Z,5.80
2019-04-29T00:41:13.077Z,5.70
2019-04-29T00:46:15.234Z,5.13
2019-04-29T00:51:17.315Z,5.93
2019-04-29T00:56:19.985Z,6.70
2019-04-29T01:01:24.421Z,6.37
2019-04-29T01:06:26.463Z,6.33
2019-04-29T01:11:28.510Z,6.50
2019-04-29T01:16:30.541Z,7.67
2019-04-29T01:21:32.627Z,7.10
2019-04-29T01:27:12.423Z,7.33
2019-04-29T01:32:14.453Z,7.00
2019-04-29T01:37:16.549Z,6.70
2019-04-29T01:42:31.174Z,6.57
2019-04-29T01:47:33.215Z,7.07
2019-04-29T01:52:35.273Z,7.23
2019-04-29T01:57:37.347Z,7.13
2019-04-29T02:02:39.460Z,7.37
2019-04-29T02:07:41.517Z,6.50
2019-04-29T02:12:43.706Z,6.60
2019-04-29T02:17:45.733Z,7.10
2019-04-29T02:23:07.396Z,7.93
2019-04-29T02:28:14.877Z,7.37
2019-04-29T02:33:16.924Z,8.17
2019-04-29T02:38:30.111Z,6.53
2019-04-29T02:43:34.096Z,6.50
2019-04-29T02:48:36.130Z,7.80
2019-04-29T02:53:38.212Z,7.40
2019-04-29T02:58:46.803Z,6.30
2019-04-29T03:03:57.782Z,7.00
2019-04-29T03:08:59.824Z,6.73
2019-04-29T03:14:01.982Z,6.90
2019-04-29T03:19:08.865Z,6.30
2019-04-29T03:24:10.953Z,6.23
2019-04-29T03:29:21.948Z,6.90
2019-04-29T03:34:24.035Z,7.53
2019-04-29T03:39:26.082Z,6.23
2019-04-29T03:44:28.167Z,7.20
2019-04-29T03:49:30.247Z,7.47
2019-04-29T03:54:32.452Z,6.77
2019-04-29T03:59:34.638Z,6.47
2019-04-29T04:04:57.508Z,6.90
2019-04-29T04:09:59.579Z,7.53
2019-04-29T04:15:01.629Z,7.87
2019-04-29T04:20:04.512Z,8.00
2019-04-29T04:25:06.580Z,8.63
2019-04-29T04:30:08.926Z,8.70
2019-04-29T04:35:11.669Z,8.33
2019-04-29T04:40:17.010Z,9.57
2019-04-29T04:45:19.190Z,8.83
2019-04-29T04:50:21.259Z,8.93
2019-04-29T04:55:26.529Z,12.13
2019-04-29T05:00:30.492Z,9.23
2019-04-29T05:05:32.561Z,9.67
2019-04-29T05:10:34.618Z,9.37
2019-04-29T05:15:36.687Z,8.77
2019-04-29T05:20:38.792Z,10.00
2019-04-29T05:25:40.867Z,8.60
2019-04-29T05:30:42.888Z,9.10
2019-04-29T05:36:01.904Z,9.30
2019-04-29T05:41:03.396Z,10.97
2019-04-29T05:46:31.075Z,8.53
2019-04-29T05:51:42.999Z,9.27
2019-04-29T05:56:45.027Z,8.53
2019-04-29T06:01:48.905Z,7.73
2019-04-29T06:06:51.171Z,7.57
2019-04-29T06:11:53.254Z,7.07
2019-04-29T06:16:57.581Z,6.90
2019-04-29T06:21:59.335Z,7.13
2019-04-29T06:27:01.563Z,6.50
2019-04-29T06:32:03.615Z,6.60
2019-04-29T06:37:05.828Z,6.30
2019-04-29T06:42:08.015Z,6.30
2019-04-29T06:47:10.169Z,6.53
2019-04-29T06:52:12.274Z,6.03
2019-04-29T06:57:14.330Z,6.03
2019-04-29T07:02:16.397Z,5.27
2019-04-29T07:07:18.482Z,5.17
2019-04-29T07:12:20.573Z,5.70
2019-04-29T07:17:22.645Z,6.10
2019-04-29T07:22:25.828Z,5.33
2019-04-29T07:27:28.754Z,6.70
2019-04-29T07:32:32.452Z,5.97
2019-04-29T07:37:35.875Z,6.17
2019-04-29T07:42:38.076Z,6.10
2019-04-29T07:47:41.028Z,6.20
2019-04-29T07:52:45.599Z,5.80
2019-04-29T07:57:47.753Z,6.37
2019-04-29T08:02:51.125Z,6.20
2019-04-29T08:07:53.316Z,6.80
2019-04-29T08:12:57.890Z,6.00
2019-04-29T08:18:06.691Z,6.90
2019-04-29T08:23:04.165Z,6.33
2019-04-29T08:28:06.346Z,8.80
2019-04-29T08:33:11.983Z,7.40
2019-04-29T08:38:12.445Z,7.03
2019-04-29T08:43:34.187Z,7.10
2019-04-29T08:48:36.345Z,7.33
2019-04-29T08:53:38.415Z,6.70
2019-04-29T08:58:44.285Z,7.80
2019-04-29T09:03:44.519Z,7.20
2019-04-29T09:08:54.485Z,7.27
2019-04-29T09:13:50.631Z,6.67
2019-04-29T09:18:52.693Z,8.40
2019-04-29T09:23:54.774Z,7.87
2019-04-29T09:28:59.688Z,8.37
2019-04-29T09:34:06.696Z,7.47
2019-04-29T09:39:05.140Z,10.53
2019-04-29T09:44:35.232Z,8.23
2019-04-29T09:49:36.977Z,7.97
2019-04-29T09:54:39.041Z,8.53
2019-04-29T09:59:47.167Z,7.83
2019-04-29T10:05:11.678Z,8.33
2019-04-29T10:10:13.836Z,8.67
2019-04-29T10:15:18.241Z,7.00
2019-04-29T10:20:25.016Z,8.70
2019-04-29T10:25:27.075Z,8.50
2019-04-29T10:30:32.392Z,7.87
2019-04-29T10:35:34.780Z,8.57
2019-04-29T10:41:00.572Z,7.93
2019-04-29T10:46:24.803Z,7.20
2019-04-29T10:51:27.463Z,8.77
2019-04-29T10:56:30.867Z,6.60
2019-04-29T11:02:34.300Z,7.03
2019-04-29T11:07:38.721Z,6.83
2019-04-29T11:12:40.785Z,8.90
2019-04-29T11:17:44.418Z,6.23
2019-04-29T11:22:53.380Z,5.10
2019-04-29T11:27:56.386Z,5.13
2019-04-29T11:33:11.261Z,5.83
2019-04-29T11:38:15.262Z,5.10
2019-04-29T11:43:18.157Z,4.90
2019-04-29T11:48:20.267Z,6.00
2019-04-29T11:53:22.450Z,5.87
2019-04-29T11:58:40.938Z,5.67
2019-04-29T12:03:43.977Z,6.20
2019-04-29T12:08:48.183Z,5.77
2019-04-29T12:14:12.253Z,6.10
2019-04-29T12:19:22.478Z,5.33
2019-04-29T12:24:24.714Z,5.87
2019-04-29T12:29:26.784Z,6.13
2019-04-29T12:34:48.292Z,8.13
2019-04-29T12:40:09.849Z,5.73
2019-04-29T12:45:22.928Z,6.70
2019-04-29T12:50:25.038Z,6.43
2019-04-29T12:55:44.196Z,6.87
2019-04-29T13:00:47.246Z,7.00
2019-04-29T13:06:04.124Z,7.37
2019-04-29T13:11:06.646Z,8.17
2019-04-29T13:16:22.043Z,8.20
2019-04-29T13:21:24.350Z,8.47
2019-04-29T13:26:28.758Z,8.47
2019-04-29T13:31:38.075Z,9.20
2019-04-29T13:36:34.527Z,10.63
2019-04-29T13:41:55.572Z,11.30
2019-04-29T13:46:59.464Z,12.13
2019-04-29T13:52:01.719Z,13.40
2019-04-29T13:57:08.891Z,16.67
2019-04-29T14:07:39.394Z,15.10
2019-04-29T14:12:48.580Z,14.27
2019-04-29T14:17:45.273Z,15.10
2019-04-29T14:22:48.853Z,14.90
2019-04-29T14:27:50.947Z,13.77
2019-04-29T14:32:57.017Z,14.63
2019-04-29T14:38:04.266Z,13.63
2019-04-29T14:43:28.721Z,16.40
2019-04-29T14:48:42.255Z,15.43
2019-04-29T14:53:37.790Z,16.67
2019-04-29T14:58:39.997Z,18.63
2019-04-29T15:03:56.631Z,19.83
2019-04-29T15:08:58.862Z,20.07
2019-04-29T15:14:08.741Z,19.17
2019-04-29T15:19:28.776Z,18.80
2019-04-29T15:24:32.381Z,20.87
2019-04-29T15:29:34.835Z,20.30
2019-04-29T15:34:40.036Z,18.73
2019-04-29T15:39:45.843Z,20.13
2019-04-29T15:44:44.903Z,19.40
2019-04-29T15:49:46.970Z,20.37
2019-04-29T15:54:51.022Z,18.67
2019-04-29T15:59:58.661Z,20.27
2019-04-29T16:05:04.693Z,18.93
2019-04-29T16:10:30.585Z,17.77
2019-04-29T16:15:32.677Z,19.40
2019-04-29T16:20:34.750Z,17.30
2019-04-29T16:25:40.802Z,18.63
2019-04-29T16:30:42.744Z,19.07
2019-04-29T16:35:44.865Z,21.40
2019-04-29T16:40:57.217Z,21.97
2019-04-29T16:46:23.460Z,19.63
2019-04-29T16:51:22.035Z,19.40
2019-04-29T16:56:24.143Z,17.97
2019-04-29T17:01:26.225Z,18.20
2019-04-29T17:06:28.298Z,16.37
2019-04-29T17:11:31.751Z,16.57
2019-04-29T17:16:33.900Z,18.37
2019-04-29T17:21:35.958Z,17.03
2019-04-29T17:26:45.482Z,17.30
2019-04-29T17:32:10.852Z,20.57
2019-04-29T17:37:13.599Z,21.13
2019-04-29T17:42:15.717Z,16.93
2019-04-29T17:47:37.876Z,20.50
2019-04-29T17:52:39.882Z,21.60
2019-04-29T17:57:56.412Z,19.27
2019-04-29T18:03:16.763Z,20.43
2019-04-29T18:08:44.862Z,24.17
2019-04-29T18:13:47.131Z,26.43
2019-04-29T18:19:05.695Z,25.73
2019-04-29T18:24:29.450Z,27.13
2019-04-29T18:29:29.845Z,24.67
2019-04-29T18:34:33.558Z,25.37
2019-04-29T18:39:36.319Z,25.27
2019-04-29T18:44:40.531Z,26.93
2019-04-29T18:49:42.409Z,24.10
2019-04-29T18:54:44.991Z,26.60
2019-04-29T18:59:47.307Z,24.10
2019-04-29T19:05:00.679Z,25.17
2019-04-29T19:10:06.880Z,22.83
2019-04-29T19:15:11.610Z,25.70
2019-04-29T19:20:16.655Z,27.10
2019-04-29T19:25:16.938Z,27.07
2019-04-29T19:30:21.143Z,26.93
2019-04-29T19:35:25.154Z,24.13
2019-04-29T19:40:30.114Z,25.23
2019-04-29T19:45:31.030Z,25.03
2019-04-29T19:50:33.079Z,25.00
2019-04-29T19:55:41.884Z,24.67
2019-04-29T20:00:39.618Z,25.23
2019-04-29T20:05:49.488Z,29.87
2019-04-29T20:10:52.690Z,26.27
2019-04-29T20:16:12.610Z,29.27
2019-04-29T20:21:24.971Z,24.53
2019-04-29T20:26:28.663Z,28.63
2019-04-29T20:31:25.834Z,25.77
2019-04-29T20:36:38.545Z,24.93
2019-04-29T20:41:41.104Z,28.00
2019-04-29T20:46:44.939Z,25.33
2019-04-29T20:51:51.217Z,23.73
2019-04-29T20:56:47.294Z,26.33
2019-04-29T21:01:56.745Z,24.77
2019-04-29T21:07:02.101Z,28.77
2019-04-29T21:12:13.411Z,23.23
2019-04-29T21:17:28.215Z,24.50
2019-04-29T21:22:23.460Z,26.00
2019-04-29T21:27:24.162Z,27.87
2019-04-29T21:32:30.582Z,29.33
2019-04-29T21:37:39.956Z,24.17
2019-04-29T21:42:47.129Z,23.73
2019-04-29T21:47:53.345Z,24.57
2019-04-29T21:52:55.409Z,26.77
2019-04-29T21:57:58.869Z,27.30
2019-04-29T22:03:00.797Z,21.10
2019-04-29T22:08:03.091Z,22.53
2019-04-29T22:13:05.343Z,18.47
2019-04-29T22:18:14.068Z,15.10
2019-04-29T22:23:13.067Z,12.47
2019-04-29T22:28:19.543Z,12.40
2019-04-29T22:33:19.420Z,11.07
2019-04-29T22:38:21.580Z,8.97
2019-04-29T22:43:33.580Z,8.57
2019-04-29T22:48:35.893Z,5.93
2019-04-29T22:53:40.016Z,7.30
2019-04-29T22:58:43.886Z,5.97
2019-04-29T23:03:47.147Z,7.20
2019-04-29T23:08:49.270Z,6.73
2019-04-29T23:13:51.418Z,6.27
2019-04-29T23:18:55.275Z,4.73
2019-04-29T23:24:13.260Z,5.40
2019-04-29T23:29:13.145Z,5.90
2019-04-29T23:34:15.520Z,5.70
2019-04-29T23:39:17.903Z,5.80
2019-04-29T23:44:19.951Z,5.60
2019-04-29T23:49:22.071Z,5.07
2019-04-29T23:54:25.192Z,5.17
2019-04-29T23:59:29.386Z,4.27
